Time;durP1;ratioP1;P1;durP2;ratioP2;P2;SDS_P1;SDS_P2;PMS_P1;PMS_P2;Temp;Humidity;BMP_temperature;BMP_pressure;BME280_temperature;BME280_humidity;BME280_pressure;Samples;Min_cycle;Max_cycle;Signal;HPM_P1;HPM_P2
2020/12/20 00:00:58;;;;;;;36.05;12.38;;;;;;;0.68;81.31;96893.69;5052954;28;20055;-69
2020/12/20 00:03:24;;;;;;;44.78;13.10;;;;;;;0.66;81.45;96891.25;5051356;28;20110;-69
2020/12/20 00:05:50;;;;;;;34.83;12.48;;;;;;;0.68;81.51;96894.53;5052130;28;20496;-68
2020/12/20 00:08:17;;;;;;;41.13;13.13;;;;;;;0.70;81.62;96887.03;5051329;28;20416;-69
2020/12/20 00:10:43;;;;;;;35.70;12.75;;;;;;;0.72;81.28;96884.09;5051741;28;20053;-69
2020/12/20 00:13:08;;;;;;;42.95;13.35;;;;;;;0.72;81.30;96884.91;5051315;28;20084;-69
2020/12/20 00:15:34;;;;;;;34.83;12.10;;;;;;;0.74;81.60;96884.69;5052096;28;20524;-68
2020/12/20 00:18:00;;;;;;;37.55;12.60;;;;;;;0.74;81.46;96890.88;5050644;28;20049;-70
2020/12/20 00:20:26;;;;;;;37.80;12.38;;;;;;;0.71;81.36;96883.31;5051820;28;20049;-68
2020/12/20 00:22:52;;;;;;;44.10;13.15;;;;;;;0.68;81.34;96877.59;5051612;28;20045;-68
2020/12/20 00:25:19;;;;;;;42.50;13.48;;;;;;;0.64;81.62;96874.63;5051171;28;20504;-68
2020/12/20 00:27:45;;;;;;;36.75;13.05;;;;;;;0.70;81.72;96895.09;5051560;28;20540;-69
2020/12/20 00:30:11;;;;;;;36.95;13.02;;;;;;;0.76;81.64;96901.34;5051941;28;20111;-69
2020/12/20 00:32:37;;;;;;;42.65;14.02;;;;;;;0.82;81.65;96900.38;5051234;28;20048;-68
2020/12/20 00:35:05;;;;;;;37.35;12.80;;;;;;;0.77;81.45;96893.06;5050870;28;20477;-69
2020/12/20 00:37:31;;;;;;;36.58;12.57;;;;;;;0.78;81.64;96896.53;5051513;28;20041;-69
2020/12/20 00:39:57;;;;;;;40.63;13.32;;;;;;;0.81;81.32;96903.31;5051249;28;20099;-69
2020/12/20 00:42:24;;;;;;;44.65;14.82;;;;;;;0.81;81.40;96887.22;5050671;28;20442;-68
2020/12/20 00:44:50;;;;;;;39.00;13.48;;;;;;;0.80;81.60;96889.09;5051250;28;20056;-69
2020/12/20 00:47:16;;;;;;;43.22;13.70;;;;;;;0.82;81.57;96892.31;5050412;28;20049;-69
2020/12/20 00:49:42;;;;;;;46.85;14.80;;;;;;;0.87;81.37;96891.59;5051114;28;20555;-69
2020/12/20 00:52:09;;;;;;;53.28;15.48;;;;;;;0.85;81.22;96891.03;5050229;28;20065;-69
2020/12/20 00:54:36;;;;;;;43.28;13.75;;;;;;;0.87;81.24;96896.97;5051266;28;20048;-69
2020/12/20 00:57:03;;;;;;;38.08;12.88;;;;;;;0.83;80.98;96903.84;5050658;28;20055;-68
2020/12/20 00:59:29;;;;;;;37.85;13.32;;;;;;;0.81;80.86;96898.75;5052106;28;20144;-69
2020/12/20 01:01:56;;;;;;;43.72;13.18;;;;;;;0.78;80.97;96899.22;5050420;28;20056;-69
2020/12/20 01:04:22;;;;;;;37.22;13.73;;;;;;;0.76;80.84;96896.78;5050280;28;20514;-69
2020/12/20 01:06:48;;;;;;;30.58;12.27;;;;;;;0.68;80.75;96905.25;5050581;28;20045;-69
2020/12/20 01:09:16;;;;;;;30.08;11.52;;;;;;;0.71;81.01;96896.69;5050080;28;20070;-69
2020/12/20 01:11:42;;;;;;;46.95;13.65;;;;;;;0.69;80.98;96909.53;5050477;28;20056;-69
2020/12/20 01:14:08;;;;;;;39.10;13.00;;;;;;;0.73;81.10;96915.22;5049761;28;20578;-71
2020/12/20 01:16:35;;;;;;;37.92;12.45;;;;;;;0.73;81.07;96913.38;5050515;28;20114;-71
2020/12/20 01:19:01;;;;;;;37.08;12.60;;;;;;;0.72;81.03;96901.00;5049979;28;20382;-69
2020/12/20 01:21:27;;;;;;;43.00;12.30;;;;;;;0.69;80.98;96896.13;5050334;28;20133;-70
2020/12/20 01:23:53;;;;;;;40.83;12.60;;;;;;;0.62;81.13;96890.09;5050477;28;20041;-70
2020/12/20 01:26:21;;;;;;;29.85;11.80;;;;;;;0.66;81.09;96891.25;5049927;28;20128;-68
2020/12/20 01:28:47;;;;;;;32.03;11.80;;;;;;;0.64;81.09;96890.69;5049238;28;20553;-71
2020/12/20 01:31:14;;;;;;;34.75;11.55;;;;;;;0.63;81.18;96889.06;5050495;28;20045;-71
2020/12/20 01:33:41;;;;;;;32.70;11.63;;;;;;;0.64;81.15;96897.91;5049858;28;20091;-71
2020/12/20 01:36:09;;;;;;;35.13;11.88;;;;;;;0.66;81.16;96895.81;5049566;28;20463;-72
2020/12/20 01:38:35;;;;;;;33.80;11.70;;;;;;;0.65;80.98;96895.00;5050180;28;20052;-69
2020/12/20 01:41:02;;;;;;;35.08;11.73;;;;;;;0.68;81.15;96894.53;5049699;28;20052;-69
2020/12/20 01:43:40;;;;;;;33.65;11.23;;;;;;;0.71;81.26;96899.38;5050159;28;20051;-69
2020/12/20 01:46:08;;;;;;;35.58;12.15;;;;;;;0.73;81.09;96901.81;5049470;28;20044;-69
2020/12/20 01:48:35;;;;;;;38.08;11.75;;;;;;;0.75;81.05;96899.72;5049650;28;20045;-69
2020/12/20 01:51:02;;;;;;;34.33;12.50;;;;;;;0.80;81.07;96901.69;5049467;28;20045;-70
2020/12/20 01:53:28;;;;;;;34.63;12.88;;;;;;;0.82;80.99;96899.56;5049837;28;20430;-68
2020/12/20 01:56:00;;;;;;;38.00;12.88;;;;;;;0.85;81.05;96904.44;5049808;28;20128;-69
2020/12/20 01:58:26;;;;;;;48.70;14.00;;;;;;;0.87;81.06;96903.13;5068598;28;20040;-68
2020/12/20 02:00:52;;;;;;;46.33;14.75;;;;;;;0.89;80.98;96905.56;5056647;28;20052;-69
2020/12/20 02:03:18;;;;;;;34.65;13.77;;;;;;;0.84;81.12;96900.16;5048717;28;20049;-70
2020/12/20 02:05:45;;;;;;;35.55;12.07;;;;;;;0.82;81.01;96904.91;5049755;28;20056;-68
2020/12/20 02:08:12;;;;;;;39.78;12.98;;;;;;;0.82;80.98;96895.00;5048869;28;20053;-71
2020/12/20 02:10:38;;;;;;;36.10;13.10;;;;;;;0.83;80.85;96895.81;5049827;28;20052;-68
2020/12/20 02:13:04;;;;;;;34.45;12.18;;;;;;;0.81;80.80;96892.56;5049183;28;20136;-68
2020/12/20 02:15:30;;;;;;;36.05;12.35;;;;;;;0.83;80.78;96890.44;5049460;28;20496;-68
2020/12/20 02:17:56;;;;;;;45.22;13.02;;;;;;;0.81;80.69;96892.56;5049308;28;20041;-69
2020/12/20 02:20:22;;;;;;;37.72;12.65;;;;;;;0.80;80.60;96885.59;5048902;28;20041;-68
2020/12/20 02:22:49;;;;;;;35.70;12.95;;;;;;;0.80;80.66;96875.69;5049445;28;20077;-69
2020/12/20 02:25:15;;;;;;;39.25;13.63;;;;;;;0.76;80.54;96877.22;5048762;28;20053;-69
2020/12/20 02:27:41;;;;;;;44.33;13.32;;;;;;;0.74;80.48;96877.47;5049227;28;20456;-69
2020/12/20 02:30:07;;;;;;;42.13;12.90;;;;;;;0.70;80.60;96881.69;5049887;28;20131;-69
2020/12/20 02:32:33;;;;;;;33.97;12.63;;;;;;;0.70;80.65;96881.69;5049203;28;20041;-69
2020/12/20 02:34:59;;;;;;;33.35;11.57;;;;;;;0.67;80.47;96892.06;5049165;28;20045;-69
2020/12/20 02:37:25;;;;;;;46.05;12.55;;;;;;;0.64;80.63;96888.00;5048584;28;20075;-69
2020/12/20 02:39:52;;;;;;;40.90;12.80;;;;;;;0.62;80.67;96879.38;5051142;28;20041;-69
2020/12/20 02:42:18;;;;;;;33.17;12.00;;;;;;;0.62;80.96;96878.56;5054432;28;20045;-69
2020/12/20 02:44:44;;;;;;;36.35;12.07;;;;;;;0.59;80.95;96879.88;5055917;28;20504;-69
2020/12/20 02:47:10;;;;;;;40.58;12.32;;;;;;;0.61;80.83;96883.13;5054894;28;20078;-69
2020/12/20 02:49:37;;;;;;;39.20;13.40;;;;;;;0.65;80.93;96889.63;5055858;28;20098;-69
2020/12/20 02:52:03;;;;;;;33.83;11.30;;;;;;;0.66;80.78;96877.03;5055400;28;20060;-69
2020/12/20 02:54:29;;;;;;;28.33;11.43;;;;;;;0.65;80.80;96878.91;5055855;28;20496;-70
2020/12/20 02:56:56;;;;;;;33.53;11.32;;;;;;;0.62;80.71;96874.03;5055793;28;20044;-69
2020/12/20 02:59:22;;;;;;;36.13;11.75;;;;;;;0.57;80.75;96860.53;5055286;28;20044;-69
2020/12/20 03:01:48;;;;;;;37.95;12.65;;;;;;;0.53;80.69;96862.09;5055638;28;20072;-69
2020/12/20 03:04:14;;;;;;;35.13;11.50;;;;;;;0.53;80.66;96864.78;5055133;28;20550;-69
2020/12/20 03:06:40;;;;;;;41.38;13.65;;;;;;;0.50;80.83;96862.56;5055227;28;20072;-68
2020/12/20 03:09:06;;;;;;;41.80;12.73;;;;;;;0.40;81.00;96865.06;5054646;28;20045;-70
2020/12/20 03:11:32;;;;;;;41.80;13.52;;;;;;;0.38;81.13;96861.81;5057429;28;20132;-69
2020/12/20 03:13:59;;;;;;;46.28;13.30;;;;;;;0.40;81.44;96857.84;5055198;28;20084;-69
2020/12/20 03:16:25;;;;;;;39.35;13.07;;;;;;;0.43;81.44;96859.22;5054698;28;20053;-69
2020/12/20 03:18:51;;;;;;;38.88;12.68;;;;;;;0.47;81.47;96855.84;5055392;28;20128;-69
2020/12/20 03:21:17;;;;;;;34.40;12.45;;;;;;;0.50;81.27;96854.53;5055005;28;20504;-70
2020/12/20 03:23:43;;;;;;;41.53;12.70;;;;;;;0.51;81.25;96850.78;5055326;28;20057;-70
2020/12/20 03:26:09;;;;;;;39.55;12.27;;;;;;;0.48;81.07;96856.66;5054759;28;20048;-69
2020/12/20 03:28:35;;;;;;;44.95;13.40;;;;;;;0.45;81.15;96855.25;5055042;28;20052;-70
2020/12/20 03:31:02;;;;;;;33.88;11.73;;;;;;;0.50;81.19;96865.25;5054922;28;20055;-69
2020/12/20 03:33:28;;;;;;;37.72;12.55;;;;;;;0.49;80.84;96863.63;5055289;28;20053;-68
2020/12/20 03:35:54;;;;;;;39.92;12.70;;;;;;;0.48;81.02;96856.66;5055292;28;20459;-70
2020/12/20 03:38:20;;;;;;;39.03;12.13;;;;;;;0.48;81.12;96851.28;5054903;28;20051;-67
2020/12/20 03:40:46;;;;;;;34.80;12.18;;;;;;;0.49;81.27;96850.22;5055453;28;20551;-68
2020/12/20 03:43:12;;;;;;;34.72;12.35;;;;;;;0.50;81.17;96859.88;5071076;28;20041;-68
2020/12/20 03:45:38;;;;;;;34.85;11.98;;;;;;;0.56;81.31;96860.78;5075380;28;20052;-68
2020/12/20 03:48:05;;;;;;;41.13;12.90;;;;;;;0.57;81.03;96849.81;5074558;28;20511;-68
2020/12/20 03:50:32;;;;;;;38.90;12.02;;;;;;;0.54;81.03;96846.81;5075272;28;20131;-71
2020/12/20 03:52:58;;;;;;;35.90;12.70;;;;;;;0.51;81.15;96840.88;5071391;28;20650;-68
2020/12/20 03:55:24;;;;;;;36.80;11.60;;;;;;;0.47;80.96;96846.97;5071830;28;20117;-70
2020/12/20 03:57:50;;;;;;;36.63;11.40;;;;;;;0.46;80.95;96839.97;5071991;28;20687;-71
2020/12/20 04:00:16;;;;;;;31.98;11.43;;;;;;;0.49;80.81;96842.19;5071441;28;20136;-68
2020/12/20 04:02:42;;;;;;;34.13;12.00;;;;;;;0.45;80.92;96841.84;5071992;28;20074;-70
2020/12/20 04:05:08;;;;;;;34.17;12.65;;;;;;;0.46;80.93;96843.47;5071126;28;20068;-68
2020/12/20 04:07:34;;;;;;;60.22;13.73;;;;;;;0.45;80.97;96849.06;5071771;28;20056;-71
2020/12/20 04:10:00;;;;;;;55.45;12.40;;;;;;;0.46;81.04;96839.97;5071895;28;20388;-70
2020/12/20 04:12:26;;;;;;;48.63;13.73;;;;;;;0.39;81.08;96837.47;5062899;28;20041;-71
2020/12/20 04:14:52;;;;;;;37.35;13.50;;;;;;;0.39;81.23;96836.66;5051662;28;20108;-68
2020/12/20 04:17:18;;;;;;;54.65;14.18;;;;;;;0.43;81.17;96843.97;5050919;28;20065;-68
2020/12/20 04:19:44;;;;;;;46.67;13.75;;;;;;;0.42;81.31;96841.53;5051787;28;20049;-68
2020/12/20 04:22:11;;;;;;;35.92;12.82;;;;;;;0.37;81.22;96844.13;5051297;28;20526;-70
2020/12/20 04:24:37;;;;;;;41.85;13.52;;;;;;;0.36;81.15;96842.47;5051670;28;20071;-70
2020/12/20 04:27:03;;;;;;;52.95;14.88;;;;;;;0.37;81.32;96844.13;5051001;28;20500;-70
2020/12/20 04:29:29;;;;;;;37.30;12.88;;;;;;;0.41;81.38;96847.94;5051252;28;20042;-70
2020/12/20 04:31:55;;;;;;;36.15;13.25;;;;;;;0.43;81.16;96840.47;5051326;28;20515;-71
2020/12/20 04:34:22;;;;;;;37.53;13.20;;;;;;;0.44;81.29;96840.22;5050711;28;20111;-70
2020/12/20 04:36:48;;;;;;;44.83;12.95;;;;;;;0.45;81.24;96851.75;5051178;28;20060;-72
2020/12/20 04:39:15;;;;;;;37.78;13.77;;;;;;;0.44;81.17;96850.13;5050808;28;20041;-70
2020/12/20 04:41:41;;;;;;;40.58;12.98;;;;;;;0.46;81.30;96853.38;5054777;28;20122;-70
2020/12/20 04:44:07;;;;;;;39.30;14.20;;;;;;;0.44;81.09;96858.97;5070630;28;20067;-70
2020/12/20 04:46:34;;;;;;;49.92;14.18;;;;;;;0.48;81.15;96857.47;5070997;28;20052;-70
2020/12/20 04:49:02;;;;;;;42.88;14.23;;;;;;;0.49;80.99;96863.63;5071025;28;20041;-70
2020/12/20 04:51:28;;;;;;;35.10;13.20;;;;;;;0.53;81.12;96851.38;5070796;28;20036;-70
2020/12/20 04:53:57;;;;;;;40.83;14.30;;;;;;;0.54;81.05;96855.69;5070848;28;20040;-70
2020/12/20 04:56:27;;;;;;;45.38;13.80;;;;;;;0.50;80.82;96851.84;5070372;28;20052;-70
2020/12/20 04:58:55;;;;;;;41.13;14.05;;;;;;;0.43;80.72;96853.88;5070726;28;20048;-70
2020/12/20 05:01:21;;;;;;;40.38;13.98;;;;;;;0.42;80.79;96852.25;5070137;28;20422;-70
2020/12/20 05:03:47;;;;;;;49.08;14.55;;;;;;;0.45;80.80;96846.41;5069533;28;20052;-70
2020/12/20 05:06:13;;;;;;;43.17;14.18;;;;;;;0.44;80.71;96844.78;5070053;28;20047;-70
2020/12/20 05:08:39;;;;;;;37.35;13.15;;;;;;;0.43;80.83;96853.88;5070586;28;20051;-70
2020/12/20 05:11:05;;;;;;;42.50;15.02;;;;;;;0.44;80.71;96850.13;5070393;28;20044;-70
2020/12/20 05:13:39;;;;;;;41.50;15.68;;;;;;;0.48;80.63;96862.00;5070851;28;20097;-70
2020/12/20 05:16:05;;;;;;;46.15;14.32;;;;;;;0.49;80.75;96860.94;5070094;28;20052;-70
2020/12/20 05:18:31;;;;;;;36.92;14.48;;;;;;;0.39;80.59;96860.75;5070433;28;20052;-71
2020/12/20 05:20:57;;;;;;;38.58;13.90;;;;;;;0.34;80.69;96868.72;5070324;28;20072;-70
2020/12/20 05:23:28;;;;;;;46.97;14.85;;;;;;;0.35;80.83;96862.28;5070012;28;20040;-70
2020/12/20 05:26:05;;;;;;;41.95;15.32;;;;;;;0.35;80.52;96857.75;5070641;28;20068;-70
2020/12/20 05:28:31;;;;;;;42.38;14.23;;;;;;;0.37;80.64;96854.84;5069664;28;20041;-70
2020/12/20 05:31:06;;;;;;;45.25;15.40;;;;;;;0.42;80.44;96865.66;5069318;28;20044;-70
2020/12/20 05:33:33;;;;;;;43.47;16.30;;;;;;;0.42;80.31;96853.06;5070080;28;20084;-70
2020/12/20 05:36:00;;;;;;;39.70;13.90;;;;;;;0.43;80.38;96853.88;5070191;28;20052;-70
2020/12/20 05:38:26;;;;;;;46.83;15.93;;;;;;;0.42;80.43;96853.06;5069576;28;20043;-70
2020/12/20 05:40:52;;;;;;;55.10;17.02;;;;;;;0.40;80.48;96854.34;5069988;28;20434;-70
2020/12/20 05:43:23;;;;;;;41.33;15.35;;;;;;;0.32;80.51;96857.44;5069841;28;20061;-71
2020/12/20 05:45:49;;;;;;;49.45;15.23;;;;;;;0.30;80.58;96860.31;5069952;28;20491;-70
2020/12/20 05:48:17;;;;;;;48.33;15.10;;;;;;;0.33;80.27;96861.72;5069000;28;20044;-70
2020/12/20 05:50:50;;;;;;;50.70;14.82;;;;;;;0.34;80.43;96866.03;5069879;28;20090;-70
2020/12/20 05:53:22;;;;;;;40.70;14.40;;;;;;;0.34;80.38;96866.03;5069406;28;20519;-71
2020/12/20 05:55:48;;;;;;;38.45;15.15;;;;;;;0.37;80.38;96868.25;5069947;28;20056;-70
2020/12/20 05:58:15;;;;;;;55.08;16.13;;;;;;;0.32;80.19;96852.88;5068929;28;20128;-70
2020/12/20 06:00:43;;;;;;;40.90;14.93;;;;;;;0.32;80.24;96854.75;5069862;28;20751;-70
2020/12/20 06:03:09;;;;;;;48.80;16.00;;;;;;;0.31;80.40;96855.78;5069002;28;20450;-71
2020/12/20 06:05:38;;;;;;;45.50;16.02;;;;;;;0.28;80.59;96862.44;5069744;28;20060;-70
2020/12/20 06:08:09;;;;;;;50.47;15.43;;;;;;;0.30;80.66;96854.16;5068870;28;20049;-71
2020/12/20 06:10:38;;;;;;;42.13;15.40;;;;;;;0.28;80.63;96856.28;5069816;28;20045;-71
2020/12/20 06:13:07;;;;;;;49.13;15.68;;;;;;;0.19;80.46;96859.31;5069290;28;20569;-70
2020/12/20 06:15:36;;;;;;;48.47;15.52;;;;;;;0.14;80.49;96861.91;5069230;28;20449;-71
2020/12/20 06:18:08;;;;;;;41.85;14.80;;;;;;;0.10;80.59;96873.34;5068793;28;20052;-70
2020/12/20 06:20:49;;;;;;;44.50;14.52;;;;;;;0.07;80.79;96855.91;5069513;28;20060;-70
2020/12/20 06:23:18;;;;;;;53.50;14.70;;;;;;;0.08;80.95;96862.88;5068757;28;20055;-71
2020/12/20 06:25:46;;;;;;;41.60;14.80;;;;;;;0.03;81.05;96856.59;5068374;28;20044;-70
2020/12/20 06:28:16;;;;;;;43.92;14.52;;;;;;;0.04;81.16;96856.34;5068804;28;20045;-70
2020/12/20 06:30:43;;;;;;;50.40;15.55;;;;;;;0.09;81.22;96869.03;5069298;28;20047;-70
2020/12/20 06:33:16;;;;;;;52.95;16.45;;;;;;;0.12;81.34;96866.72;5068717;28;20040;-71
2020/12/20 06:35:45;;;;;;;42.15;14.88;;;;;;;0.15;81.26;96860.84;5069404;28;20048;-71
2020/12/20 06:38:13;;;;;;;49.28;14.98;;;;;;;0.15;81.15;96863.53;5068708;28;20045;-71
2020/12/20 06:40:44;;;;;;;48.75;14.88;;;;;;;0.21;81.23;96862.59;5069230;28;20052;-71
2020/12/20 06:43:11;;;;;;;46.15;14.00;;;;;;;0.21;81.07;96864.47;5054939;28;20049;-70
2020/12/20 06:45:44;;;;;;;51.35;14.25;;;;;;;0.17;80.84;96861.44;5049190;28;20052;-70
2020/12/20 06:48:13;;;;;;;52.25;15.25;;;;;;;0.19;80.65;96859.31;5048188;28;20063;-71
2020/12/20 06:50:47;;;;;;;44.55;14.63;;;;;;;0.16;80.49;96859.00;5049221;28;20051;-71
2020/12/20 06:53:15;;;;;;;40.53;14.05;;;;;;;0.14;80.70;96853.06;5048615;28;20048;-70
2020/12/20 06:55:41;;;;;;;48.30;15.30;;;;;;;0.15;80.74;96855.50;5048884;28;20052;-70
2020/12/20 06:58:16;;;;;;;41.00;13.88;;;;;;;0.15;80.54;96858.19;5048407;28;20044;-71
2020/12/20 07:00:48;;;;;;;43.63;14.13;;;;;;;0.09;80.61;96867.16;5049178;28;20075;-70
2020/12/20 07:03:34;;;;;;;50.22;15.20;;;;;;;0.01;80.73;96872.91;5048447;28;20045;-71
2020/12/20 07:06:17;;;;;;;39.53;13.35;;;;;;;0.04;80.87;96863.59;5049113;28;20049;-70
2020/12/20 07:08:52;;;;;;;;;;;;;;;0.03;80.77;96876.16;5049226;28;20444;-70
2020/12/20 07:11:20;;;;;;;40.40;14.02;;;;;;;0.03;81.08;96861.97;5048946;28;19925;-70
2020/12/20 07:13:49;;;;;;;38.55;13.30;;;;;;;0.06;81.18;96865.00;5068800;28;20049;-70
2020/12/20 07:16:17;;;;;;;42.78;14.15;;;;;;;0.10;81.24;96859.94;5067892;28;20047;-70
2020/12/20 07:18:51;;;;;;;49.90;14.48;;;;;;;0.11;81.20;96857.06;5066006;28;20076;-70
2020/12/20 07:21:46;;;;;;;46.58;14.18;;;;;;;0.08;81.08;96860.19;5065610;28;20141;-71
2020/12/20 07:24:17;;;;;;;50.80;14.40;;;;;;;0.06;80.84;96859.63;5065321;28;20053;-70
2020/12/20 07:26:43;;;;;;;41.97;12.63;;;;;;;0.07;81.08;96861.25;5066563;28;20079;-70
2020/12/20 07:29:10;;;;;;;45.08;14.23;;;;;;;0.11;81.18;96862.41;5068718;28;20048;-70
2020/12/20 07:31:36;;;;;;;48.38;13.77;;;;;;;0.14;81.20;96861.91;5069495;28;20053;-70
2020/12/20 07:34:03;;;;;;;40.85;13.82;;;;;;;0.14;81.08;96845.84;5068850;28;20827;-72
2020/12/20 07:36:29;;;;;;;43.65;13.52;;;;;;;0.13;80.99;96849.56;5069468;28;20048;-70
2020/12/20 07:38:57;;;;;;;46.67;13.70;;;;;;;0.16;80.91;96851.78;5071530;28;20059;-71
2020/12/20 07:41:24;;;;;;;58.72;15.57;;;;;;;0.19;80.82;96845.94;5087813;28;20075;-70
2020/12/20 07:43:51;;;;;;;51.92;14.95;;;;;;;0.18;80.52;96849.69;5049021;28;20053;-71
2020/12/20 07:46:17;;;;;;;55.47;14.57;;;;;;;0.18;80.77;96852.34;5048899;28;20096;-71
2020/12/20 07:48:43;;;;;;;44.88;14.68;;;;;;;0.17;80.73;96858.78;5060703;28;20778;-71
2020/12/20 07:51:11;;;;;;;48.10;15.18;;;;;;;0.20;80.81;96863.63;5069166;28;20675;-71
2020/12/20 07:53:37;;;;;;;51.17;14.75;;;;;;;0.17;80.75;96861.44;5069456;28;20063;-70
2020/12/20 07:56:04;;;;;;;49.25;15.10;;;;;;;0.17;80.63;96855.28;5068665;28;20040;-71
2020/12/20 07:58:31;;;;;;;45.35;13.77;;;;;;;0.21;80.81;96856.44;5069004;28;20504;-71
2020/12/20 08:01:07;;;;;;;56.95;15.60;;;;;;;0.24;80.66;96855.94;5068838;28;20106;-71
2020/12/20 08:03:33;;;;;;;53.70;17.60;;;;;;;0.22;81.05;96861.53;5069308;28;20048;-71
2020/12/20 08:06:08;;;;;;;51.88;16.20;;;;;;;0.31;81.00;96853.09;5069264;28;20705;-71
2020/12/20 08:08:34;;;;;;;58.05;15.10;;;;;;;0.36;81.13;96847.84;5068673;28;20449;-71
2020/12/20 08:11:16;;;;;;;49.15;14.77;;;;;;;0.41;81.07;96855.97;5068899;28;20555;-71
2020/12/20 08:13:49;;;;;;;60.85;20.10;;;;;;;0.46;81.17;96859.53;5050912;28;20045;-71
2020/12/20 08:16:21;;;;;;;59.45;17.35;;;;;;;0.47;81.11;96858.50;5048895;28;20053;-71
2020/12/20 08:18:59;;;;;;;56.72;14.63;;;;;;;0.44;80.81;96855.50;5048337;28;20053;-71
2020/12/20 08:21:33;;;;;;;54.53;15.15;;;;;;;0.35;80.54;96854.25;5049373;28;20044;-71
2020/12/20 08:23:59;;;;;;;48.95;14.20;;;;;;;0.31;80.07;96855.78;5048857;28;20041;-71
2020/12/20 08:26:31;;;;;;;50.08;14.95;;;;;;;0.25;80.11;96855.69;5048538;28;20048;-71
2020/12/20 08:28:57;;;;;;;48.95;13.80;;;;;;;0.23;80.15;96855.13;5048692;28;20049;-71
2020/12/20 08:31:27;;;;;;;53.33;15.27;;;;;;;0.20;80.52;96855.59;5048264;28;20782;-71
2020/12/20 08:33:53;;;;;;;47.00;14.25;;;;;;;0.25;80.74;96858.38;5065643;28;20048;-71
2020/12/20 08:36:21;;;;;;;54.40;14.63;;;;;;;0.31;80.71;96864.63;5051668;28;20049;-70
2020/12/20 08:38:47;;;;;;;47.28;14.43;;;;;;;0.31;80.34;96866.50;5048186;28;20114;-71
2020/12/20 08:41:24;;;;;;;53.28;14.35;;;;;;;0.28;80.40;96862.44;5048080;28;20110;-71
2020/12/20 08:44:06;;;;;;;47.20;13.13;;;;;;;0.28;80.42;96869.66;5048351;28;20044;-71
2020/12/20 08:46:33;;;;;;;47.90;13.82;;;;;;;0.28;80.47;96881.19;5046712;28;20072;-71
2020/12/20 08:49:13;;;;;;;60.22;16.00;;;;;;;0.36;80.49;96878.13;5070025;28;20121;-71
2020/12/20 08:51:39;;;;;;;48.55;14.45;;;;;;;0.41;80.31;96883.56;5074633;28;20056;-71
2020/12/20 08:54:05;;;;;;;47.92;13.82;;;;;;;0.43;79.91;96876.13;5067659;28;20102;-71
2020/12/20 08:56:31;;;;;;;45.05;14.27;;;;;;;0.44;79.89;96876.94;5068320;28;20399;-71
2020/12/20 08:58:58;;;;;;;53.10;15.52;;;;;;;0.43;79.72;96875.31;5068128;28;20139;-71
2020/12/20 09:01:26;;;;;;;73.72;18.10;;;;;;;0.47;80.01;96876.44;5066399;28;20056;-71
2020/12/20 09:03:53;;;;;;;50.30;15.48;;;;;;;0.54;80.12;96882.47;5067348;28;20052;-71
2020/12/20 09:06:19;;;;;;;54.53;16.10;;;;;;;0.60;80.01;96878.81;5067308;28;20466;-71
2020/12/20 09:08:46;;;;;;;53.95;15.82;;;;;;;0.63;79.95;96881.03;5067879;28;20060;-72
2020/12/20 09:11:24;;;;;;;105.28;16.27;;;;;;;0.64;79.79;96877.28;5075418;28;20455;-71
2020/12/20 09:13:50;;;;;;;89.13;15.20;;;;;;;0.69;79.75;96880.06;5076916;28;20055;-71
2020/12/20 09:16:16;;;;;;;92.00;14.85;;;;;;;0.71;79.36;96872.56;5067116;28;20048;-71
2020/12/20 09:18:42;;;;;;;93.38;15.40;;;;;;;0.76;79.32;96871.84;5067552;28;20052;-72
2020/12/20 09:21:08;;;;;;;110.80;16.65;;;;;;;0.76;78.99;96869.97;5066245;28;20574;-72
2020/12/20 09:23:34;;;;;;;87.55;14.77;;;;;;;0.78;78.85;96878.63;5067697;28;20063;-71
2020/12/20 09:26:02;;;;;;;100.93;16.23;;;;;;;0.82;78.82;96870.88;5067415;28;20117;-72
2020/12/20 09:28:29;;;;;;;99.22;15.52;;;;;;;0.89;79.00;96873.38;5067196;28;20040;-71
2020/12/20 09:30:56;;;;;;;110.43;16.13;;;;;;;0.96;78.83;96879.44;5067219;28;20052;-72
2020/12/20 09:33:25;;;;;;;79.30;14.20;;;;;;;0.97;78.78;96875.69;5066775;28;20080;-72
2020/12/20 09:36:00;;;;;;;133.75;16.58;;;;;;;0.96;78.47;96868.69;5066713;28;20053;-71
2020/12/20 09:38:29;;;;;;;72.93;13.77;;;;;;;0.99;78.45;96874.41;5066059;28;20048;-71
2020/12/20 09:40:57;;;;;;;90.15;13.43;;;;;;;0.92;77.95;96872.91;5067332;28;20059;-71
2020/12/20 09:43:22;;;;;;;101.13;16.30;;;;;;;0.91;78.10;96871.28;5062146;28;20060;-71
2020/12/20 09:45:48;;;;;;;116.03;15.32;;;;;;;0.93;78.25;96871.84;5047300;28;20072;-71
2020/12/20 09:48:15;;;;;;;75.68;13.73;;;;;;;0.92;78.08;96864.88;5046688;28;20203;-71
2020/12/20 09:50:41;;;;;;;113.00;15.57;;;;;;;0.92;78.35;96862.19;5046363;28;20071;-70
2020/12/20 09:53:08;;;;;;;86.05;14.45;;;;;;;0.90;78.18;96854.41;5046431;28;20496;-73
2020/12/20 09:55:34;;;;;;;84.90;14.27;;;;;;;0.91;78.54;96865.94;5047125;28;20500;-71
2020/12/20 09:58:00;;;;;;;94.55;15.23;;;;;;;0.94;78.51;96873.47;5046992;28;20144;-70
2020/12/20 10:00:26;;;;;;;97.93;15.40;;;;;;;1.01;78.40;96868.78;5047050;28;20055;-70
2020/12/20 10:02:52;;;;;;;59.33;15.98;;;;;;;1.06;78.48;96870.72;5057951;28;20498;-73
2020/12/20 10:05:18;;;;;;;56.03;15.43;;;;;;;1.08;78.43;96866.72;5080567;28;20131;-70
2020/12/20 10:07:44;;;;;;;61.63;17.95;;;;;;;1.13;78.52;96864.13;5066044;28;20140;-71
2020/12/20 10:10:10;;;;;;;53.10;14.82;;;;;;;1.17;78.09;96862.59;5066324;28;20056;-72
2020/12/20 10:12:37;;;;;;;58.10;16.58;;;;;;;1.12;78.09;96862.50;5066730;28;20076;-71
2020/12/20 10:15:03;;;;;;;47.28;14.30;;;;;;;1.14;78.01;96863.06;5066698;28;20056;-72
2020/12/20 10:17:29;;;;;;;53.08;14.85;;;;;;;1.18;78.15;96864.22;5066300;28;20495;-71
2020/12/20 10:19:55;;;;;;;51.58;14.65;;;;;;;1.22;77.99;96865.34;5066614;28;20076;-70
2020/12/20 10:22:21;;;;;;;51.92;14.43;;;;;;;1.26;77.94;96873.72;5065933;28;20411;-71
2020/12/20 10:24:47;;;;;;;45.78;14.38;;;;;;;1.32;77.68;96877.28;5067084;28;20109;-71
2020/12/20 10:27:14;;;;;;;52.63;14.60;;;;;;;1.39;77.48;96870.69;5065591;28;20079;-71
2020/12/20 10:29:40;;;;;;;47.72;14.40;;;;;;;1.44;77.76;96881.50;5066191;28;20051;-71
2020/12/20 10:32:06;;;;;;;54.90;16.67;;;;;;;1.46;77.33;96887.44;5065149;28;20044;-72
2020/12/20 10:34:32;;;;;;;80.82;17.05;;;;;;;1.36;76.91;96889.13;5066324;28;20563;-71
2020/12/20 10:36:58;;;;;;;59.53;15.50;;;;;;;1.38;77.58;96897.78;5049966;28;20076;-71
2020/12/20 10:39:24;;;;;;;75.22;16.92;;;;;;;1.42;77.57;96888.19;5045644;28;20061;-71
2020/12/20 10:41:52;;;;;;;55.78;14.98;;;;;;;1.48;77.76;96892.56;5046561;28;20577;-71
2020/12/20 10:44:20;;;;;;;70.35;15.77;;;;;;;1.48;77.62;96887.19;5045593;28;20084;-70
2020/12/20 10:46:48;;;;;;;59.72;15.07;;;;;;;1.48;77.59;96885.31;5045938;28;20045;-70
2020/12/20 10:49:14;;;;;;;54.60;15.13;;;;;;;1.49;77.75;96888.81;5061922;28;20048;-71
2020/12/20 10:51:40;;;;;;;61.70;14.65;;;;;;;1.46;77.71;96890.13;5050334;28;20048;-71
2020/12/20 10:54:06;;;;;;;60.80;15.80;;;;;;;1.44;76.97;96886.84;5045956;28;20080;-72
2020/12/20 10:56:32;;;;;;;64.18;15.43;;;;;;;1.42;76.74;96874.75;5046115;28;20115;-70
2020/12/20 10:58:58;;;;;;;62.95;15.27;;;;;;;1.40;76.92;96874.97;5046078;28;20055;-70
2020/12/20 11:01:24;;;;;;;70.15;15.80;;;;;;;1.46;77.31;96873.19;5047603;28;20485;-71
2020/12/20 11:03:51;;;;;;;65.93;15.93;;;;;;;1.48;77.67;96885.31;5049407;28;20056;-71
2020/12/20 11:06:18;;;;;;;69.93;15.52;;;;;;;1.49;77.73;96888.81;5049432;28;20053;-71
2020/12/20 11:08:44;;;;;;;61.60;15.95;;;;;;;1.50;77.59;96890.44;5050178;28;20049;-71
2020/12/20 11:11:10;;;;;;;70.50;16.63;;;;;;;1.50;77.25;96885.88;5049426;28;20538;-72
2020/12/20 11:13:40;;;;;;;57.65;15.30;;;;;;;1.56;77.67;96874.13;5050286;28;20059;-70
2020/12/20 11:16:11;;;;;;;76.57;16.55;;;;;;;1.57;77.67;96888.41;5049217;28;20048;-71
2020/12/20 11:18:37;;;;;;;61.90;15.50;;;;;;;1.54;77.65;96892.38;5049616;28;20229;-71
2020/12/20 11:21:03;;;;;;;67.45;16.45;;;;;;;1.59;78.20;96888.94;5050462;28;20052;-71
2020/12/20 11:23:29;;;;;;;60.13;15.68;;;;;;;1.56;78.89;96889.44;5049723;28;20053;-71
2020/12/20 11:25:55;;;;;;;62.72;15.15;;;;;;;1.53;78.95;96884.56;5049566;28;20721;-70